LPPTLPMA

Guest
Details From LPPT - Lisboa
To LPMA - Madeira
Flight Number -
Tags Routegen Generated
Created
Modified
Stats Distance 520 nm / 963 km
Max Altitude 7,900 ft / 2,408 m
Waypoints 8
Social Downloads 6
Likes 0
Share VATSIM

Download

Looking for another format? Having issues loading an existing format? Contact us
Advertisement - Login to hide

Notes

Departing runway 20 LPPT. Arriving runway 4 LPMA.

Route

LPPT +38.70_-009.18 +38.66_-009.23 +37.40_-010.98 +36.11_-012.66 +34.81_-014.30 +32.76_-016.71 LPMA

ID Type Via Altitude Latitude Longitude Leg Dist Tot Dist Heading (true) Name
O LPPT APT - 0 ft / 0 m 38.76569˚ -9.14438˚ - 0 nm - -
+38.70_-009.18 LATLON - 7,900 ft / 2,408 m 38.69893˚ -9.18019˚ 4 nm 4 nm 203° / 203° -
+38.66_-009.23 LATLON - 7,900 ft / 2,408 m 38.65639˚ -9.23048˚ 3 nm 7 nm 223° / 223° -
+37.40_-010.98 LATLON - 7,900 ft / 2,408 m 37.39661˚ -10.97565˚ 111 nm 119 nm 228° / 227° -
+36.11_-012.66 LATLON - 7,900 ft / 2,408 m 36.11318˚ -12.66287˚ 111 nm 231 nm 227° / 226° -
+34.81_-014.30 LATLON - 7,900 ft / 2,408 m 34.80686˚ -14.29536˚ 111 nm 343 nm 226° / 225° -
+32.76_-016.71 LATLON - 580 ft / 177 m 32.75933˚ -16.70613˚ 172 nm 515 nm 225° / 224° -
O LPMA APT - 0 ft / 0 m 32.70641˚ -16.76481˚ 4 nm 520 nm 223° / 223° -

Altitude Profile

Advertisement - Login to hide

Weather


0- 5 10 15 20 25 30 35+ Temperature / ° C

Clouds and Precipitation
Forecast for 2017-12-17 18:00 UTC. Updated 41 minutes ago

Ground ~20,000 ft ~40,000 ft Winds

LPPT

Details ICAO LPPT (LIS)
Name Lisboa
Region Portugal
Timezone Europe/Lisbon (UTC+0.0)
Stats Elevation 374 ft / 114 m (AMSL)
Location 38.778559° -9.135146°
Runways 2
Magnetic Variation 2.363° W

METAR

LPPT 171800Z 02005KT 340V080 CAVOK 10/03 Q1031

Decode

TAF

TAF LPPT 171700Z 1718/1824 05008KT CAVOK PROB30 1718/1801 35008KT BECMG 1818/1820 35007KT

Decode

Departure Runways

ID Width Length Bearing (true) Bearing (mag) Surface Threshold Offset Overrun Length
03 148 ft / 45 m 12,518 ft / 3,815 m 22.70° 25.06° Asphalt 296 ft / 90 m 0 ft / 0 m
17 148 ft / 45 m 7,922 ft / 2,415 m 168.38° 170.74° Asphalt 0 ft / 0 m 0 ft / 0 m
21 148 ft / 45 m 12,518 ft / 3,815 m 202.72° 205.08° Asphalt 1,969 ft / 600 m 0 ft / 0 m
35 148 ft / 45 m 7,922 ft / 2,415 m 348.38° 350.74° Asphalt 492 ft / 150 m 0 ft / 0 m

LPMA

Details ICAO LPMA (FNC)
Name Madeira
Region Portugal
Timezone Atlantic/Madeira (UTC+0.0)
Stats Elevation 192 ft / 59 m (AMSL)
Location 32.697704° -16.774449°
Runways 1
Magnetic Variation 4.981° W

METAR

LPMA 171800Z 02016KT 9999 BKN015 17/11 Q1027

Decode

TAF

TAF LPMA 171700Z 1718/1818 02015KT 9999 SCT015 SCT030 TEMPO 1718/1812 BKN015 PROB40 TEMPO 1718/1724 02018G30KT

Decode

Destination Runways

ID Width Length Bearing (true) Bearing (mag) Surface Threshold Offset Overrun Length
05 141 ft / 43 m 8,683 ft / 2,647 m 42.98° 47.96° Asphalt 472 ft / 144 m 0 ft / 0 m
23 141 ft / 43 m 8,683 ft / 2,647 m 222.99° 227.97° Asphalt 466 ft / 142 m 0 ft / 0 m

Popular Alternatives